Captain Ron L — WDD5492 — position and weather

sailwx.info

Track history (hours):
 
Tides and Currents Weather Stations Pressure Air Temp Water Temp Dewpoint Dewpoint Depression Visibility Wind Speed Wind Dir Waves Ship Positions

Captain Ron L

Owner: Vulcan Materials Company, Richmond, VA. More information available from US FCC via Universal Licensing System and Coast Guard Vessel Documentation Center.

Last reported at 2018-Feb-19 22:03 UTC. Time now 2018-Feb-20 07:43 UTC.
Position N 36°50' W 076°17'.

Length 16 m; draft 2.3 m.

Type: Tug. MMSI: 367159130.

Date/timePositionNaut miles runAvg speedWind from/ knotsBaromVisibWave heightAir tempDewpointWater temp
2018-Feb-19 22:03N 36°50' W 076°17'0 0.0
2018-Feb-19 22:00N 36°50' W 076°17'1 1.7
2018-Feb-19 21:30N 36°50' W 076°16'1 2.7
2018-Feb-19 21:00N 36°50' W 076°15'1 1.8
2018-Feb-19 20:30N 36°50' W 076°16'0 0.8
2018-Feb-19 20:00N 36°50' W 076°15'0 0.7
2018-Feb-19 19:30N 36°50' W 076°16'0 0.0
2018-Feb-19 18:59N 36°50' W 076°16'0 0.0
2018-Feb-19 18:12N 36°50' W 076°16'0 0.5
2018-Feb-19 18:00N 36°50' W 076°16'1 1.5
2018-Feb-19 17:30N 36°50' W 076°15'2 3.1
2018-Feb-19 17:00N 36°50' W 076°17'1 1.4
2018-Feb-19 16:30N 36°50' W 076°16'0 0.0
2018-Feb-19 16:00N 36°50' W 076°16'1 1.2
2018-Feb-19 15:30N 36°50' W 076°17'1 1.3
2018-Feb-19 15:00N 36°50' W 076°16'1 1.7
2018-Feb-19 14:30N 36°50' W 076°15'0 0.0
2018-Feb-19 13:59N 36°50' W 076°15'1 1.6
2018-Feb-19 13:30N 36°50' W 076°16'0 0.4
2018-Feb-19 13:00N 36°50' W 076°16'1 2.7
2018-Feb-19 12:30N 36°50' W 076°18'  
2018-Feb-14 21:30N 36°50' W 076°17'1 1.7
2018-Feb-14 21:00N 36°50' W 076°16'1 2.5
2018-Feb-14 20:31N 36°50' W 076°15'0 0.4
2018-Feb-14 20:00N 36°50' W 076°15'2 3.2
2018-Feb-14 19:31N 36°50' W 076°17'0 0.2
2018-Feb-14 19:00N 36°50' W 076°17'1 1.5
2018-Feb-14 18:30N 36°50' W 076°17'0 0.0
2018-Feb-14 18:00N 36°50' W 076°17'1 1.1
2018-Feb-14 17:31N 36°51' W 076°18'2 3.3
2018-Feb-14 17:00N 36°51' W 076°20'3 6.1
2018-Feb-14 16:30N 36°49' W 076°17'2 3.4
2018-Feb-14 16:01N 36°47' W 076°18'0 0.0
2018-Feb-14 15:31N 36°47' W 076°18'0 0.0
2018-Feb-14 15:01N 36°47' W 076°18'2 4.6
2018-Feb-14 14:31N 36°50' W 076°18'2 3.2
2018-Feb-14 14:00N 36°50' W 076°16'0 0.1
2018-Feb-14 13:30N 36°50' W 076°16'0 0.2
2018-Feb-14 13:01N 36°50' W 076°16'1 2.6
2018-Feb-14 12:31N 36°50' W 076°17'0 0.0
2018-Feb-13 19:50N 36°50' W 076°17'1 2.7
2018-Feb-13 19:30N 36°50' W 076°16'1 2.5
2018-Feb-13 18:59N 36°50' W 076°15'0 1.0
2018-Feb-13 18:30N 36°50' W 076°15'0 0.9
2018-Feb-13 18:00N 36°50' W 076°15'0 0.1
2018-Feb-13 17:30N 36°50' W 076°15'0 0.0
2018-Feb-13 16:58N 36°50' W 076°15'1 3.1
2018-Feb-13 16:30N 36°50' W 076°17'1 2.9
2018-Feb-13 16:00N 36°50' W 076°15'0 0.0
2018-Feb-13 15:30N 36°50' W 076°15'0 0.1
2018-Feb-13 15:00N 36°50' W 076°15'0 0.0
2018-Feb-13 14:30N 36°50' W 076°15'0 0.0
2018-Feb-13 13:56N 36°50' W 076°15'0 1.0
2018-Feb-13 13:30N 36°50' W 076°15'0 0.8
2018-Feb-13 13:00N 36°50' W 076°15'0 0.0
2018-Feb-13 12:30N 36°50' W 076°15'0 0.0
2018-Feb-13 12:00N 36°50' W 076°15'2 4.6
2018-Feb-13 11:30N 36°50' W 076°18'  
Track history (hours):
 
Tides and Currents Weather Stations Pressure Air Temp Water Temp Dewpoint Dewpoint Depression Visibility Wind Speed Wind Dir Waves Ship Positions

Captain Ron L

Owner: Vulcan Materials Company, Richmond, VA. More information available from US FCC via Universal Licensing System and Coast Guard Vessel Documentation Center.

Last reported at 2018-Feb-19 22:03 UTC. Time now 2018-Feb-20 07:43 UTC.
Position N 36°50' W 076°17'.

Length 16 m; draft 2.3 m.

Type: Tug. MMSI: 367159130.

Date/timePositionNaut miles runAvg speedWind from/ knotsBaromVisibWave heightAir tempDewpointWater temp
2018-Feb-19 22:03N 36°50' W 076°17'0 0.0
2018-Feb-19 22:00N 36°50' W 076°17'1 1.7
2018-Feb-19 21:30N 36°50' W 076°16'1 2.7
2018-Feb-19 21:00N 36°50' W 076°15'1 1.8
2018-Feb-19 20:30N 36°50' W 076°16'0 0.8
2018-Feb-19 20:00N 36°50' W 076°15'0 0.7
2018-Feb-19 19:30N 36°50' W 076°16'0 0.0
2018-Feb-19 18:59N 36°50' W 076°16'0 0.0
2018-Feb-19 18:12N 36°50' W 076°16'0 0.5
2018-Feb-19 18:00N 36°50' W 076°16'1 1.5
2018-Feb-19 17:30N 36°50' W 076°15'2 3.1
2018-Feb-19 17:00N 36°50' W 076°17'1 1.4
2018-Feb-19 16:30N 36°50' W 076°16'0 0.0
2018-Feb-19 16:00N 36°50' W 076°16'1 1.2
2018-Feb-19 15:30N 36°50' W 076°17'1 1.3
2018-Feb-19 15:00N 36°50' W 076°16'1 1.7
2018-Feb-19 14:30N 36°50' W 076°15'0 0.0
2018-Feb-19 13:59N 36°50' W 076°15'1 1.6
2018-Feb-19 13:30N 36°50' W 076°16'0 0.4
2018-Feb-19 13:00N 36°50' W 076°16'1 2.7
2018-Feb-19 12:30N 36°50' W 076°18'  
2018-Feb-14 21:30N 36°50' W 076°17'1 1.7
2018-Feb-14 21:00N 36°50' W 076°16'1 2.5
2018-Feb-14 20:31N 36°50' W 076°15'0 0.4
2018-Feb-14 20:00N 36°50' W 076°15'2 3.2
2018-Feb-14 19:31N 36°50' W 076°17'0 0.2
2018-Feb-14 19:00N 36°50' W 076°17'1 1.5
2018-Feb-14 18:30N 36°50' W 076°17'0 0.0
2018-Feb-14 18:00N 36°50' W 076°17'1 1.1
2018-Feb-14 17:31N 36°51' W 076°18'2 3.3
2018-Feb-14 17:00N 36°51' W 076°20'3 6.1
2018-Feb-14 16:30N 36°49' W 076°17'2 3.4
2018-Feb-14 16:01N 36°47' W 076°18'0 0.0
2018-Feb-14 15:31N 36°47' W 076°18'0 0.0
2018-Feb-14 15:01N 36°47' W 076°18'2 4.6
2018-Feb-14 14:31N 36°50' W 076°18'2 3.2
2018-Feb-14 14:00N 36°50' W 076°16'0 0.1
2018-Feb-14 13:30N 36°50' W 076°16'0 0.2
2018-Feb-14 13:01N 36°50' W 076°16'1 2.6
2018-Feb-14 12:31N 36°50' W 076°17'0 0.0
2018-Feb-13 19:50N 36°50' W 076°17'1 2.7
2018-Feb-13 19:30N 36°50' W 076°16'1 2.5
2018-Feb-13 18:59N 36°50' W 076°15'0 1.0
2018-Feb-13 18:30N 36°50' W 076°15'0 0.9
2018-Feb-13 18:00N 36°50' W 076°15'0 0.1
2018-Feb-13 17:30N 36°50' W 076°15'0 0.0
2018-Feb-13 16:58N 36°50' W 076°15'1 3.1
2018-Feb-13 16:30N 36°50' W 076°17'1 2.9
2018-Feb-13 16:00N 36°50' W 076°15'0 0.0
2018-Feb-13 15:30N 36°50' W 076°15'0 0.1
2018-Feb-13 15:00N 36°50' W 076°15'0 0.0
2018-Feb-13 14:30N 36°50' W 076°15'0 0.0
2018-Feb-13 13:56N 36°50' W 076°15'0 1.0
2018-Feb-13 13:30N 36°50' W 076°15'0 0.8
2018-Feb-13 13:00N 36°50' W 076°15'0 0.0
2018-Feb-13 12:30N 36°50' W 076°15'0 0.0
2018-Feb-13 12:00N 36°50' W 076°15'2 4.6
2018-Feb-13 11:30N 36°50' W 076°18'  

Dump ship's entire track history